This is the latest recevied weather packets stored in our database for station/object KJ6APE. If no packets are shown the sender has not sent any weather packets the latest 10 day(s).
| Time | Temp. | Humidity | Pressure | Rain* | Wind** | Luminosity | Snow |
|---|---|---|---|---|---|---|---|
| 1778102902 | 23.89° C | 46% | 1019.1 hPa | 0 mm | - | 971 W/m² | - |
| 1778102597 | 25° C | 44% | 1019.1 hPa | 0 mm | - | 978 W/m² | - |
| 1778102292 | 25° C | 44% | 1019.1 hPa | 0 mm | - | 985 W/m² | - |
| 1778101989 | 24.44° C | 44% | 1019.2 hPa | 0 mm | - | 989 W/m² | - |
| 1778101687 | 23.89° C | 47% | 1019.2 hPa | 0 mm | - | 989 W/m² | - |
| 1778101383 | 23.33° C | 47% | 1019.2 hPa | 0 mm | - | 993 W/m² | - |
| 1778101080 | 23.89° C | 46% | 1019.2 hPa | 0 mm | - | 998 W/m² | - |
| 1778100776 | 23.89° C | 47% | 1019.1 hPa | 0 mm | - | 999 W/m² | - |
| 1778100473 | 23.89° C | 46% | 1019.2 hPa | 0 mm | - | 998 W/m² | - |
| 1778100171 | 23.89° C | 49% | 1019.1 hPa | 0 mm | - | 1002 W/m² | - |
| 1778099868 | 23.33° C | 48% | 1019.2 hPa | 0 mm | - | 1003 W/m² | - |
| 1778099565 | 23.33° C | 51% | 1019.5 hPa | 0 mm | - | 1000 W/m² | - |
| 1778099262 | 23.89° C | 48% | 1019.4 hPa | 0 mm | - | 1001 W/m² | - |
| 1778098959 | 23.33° C | 52% | 1019.6 hPa | 0 mm | - | 1001 W/m² | - |
| 1778098656 | 23.33° C | 53% | 1019.6 hPa | 0 mm | - | 1019 W/m² | - |
| 1778098352 | 22.78° C | 52% | 1019.7 hPa | 0 mm | - | 1065 W/m² | - |
| 1778098049 | 22.78° C | 52% | 1019.8 hPa | 0 mm | - | 1058 W/m² | - |
| 1778097746 | 22.78° C | 52% | 1019.8 hPa | 0 mm | - | 282 W/m² | - |
| 1778097442 | 22.78° C | 53% | 1019.9 hPa | 0 mm | - | 1123 W/m² | - |
| 1778097139 | 22.78° C | 52% | 1019.9 hPa | 0 mm | - | 1080 W/m² | - |
| 1778096836 | 22.22° C | 55% | 1019.8 hPa | 0 mm | - | 1152 W/m² | - |
| 1778096532 | 22.78° C | 52% | 1020 hPa | 0 mm | - | 409 W/m² | - |
| 1778096230 | 22.78° C | 53% | 1020 hPa | 0 mm | - | 1151 W/m² | - |
| 1778095927 | 22.78° C | 54% | 1020.2 hPa | 0 mm | - | 802 W/m² | - |
| 1778095624 | 22.22° C | 56% | 1020.2 hPa | 0 mm | - | 1113 W/m² | - |
* Rain latest hour (hover to see other rain measurements)
** Current wind speed in m/s (hover to see current wind gust speed)